createdAt,value
2019-05-11T00:00:07.764Z,100545.84
2019-05-11T00:02:38.471Z,100652.53
2019-05-11T00:05:10.126Z,100650.35
2019-05-11T00:07:42.494Z,100651.33
2019-05-11T00:10:14.079Z,100652.67
2019-05-11T00:12:45.650Z,100651.52
2019-05-11T00:15:19.749Z,100647.89
2019-05-11T00:17:52.364Z,100660.57
2019-05-11T00:20:23.859Z,100652.67
2019-05-11T00:22:55.149Z,100651.09
2019-05-11T00:25:28.149Z,100652.61
2019-05-11T00:27:59.675Z,100650.53
2019-05-11T00:30:31.148Z,100650.80
2019-05-11T00:33:02.701Z,100658.94
2019-05-11T00:35:34.132Z,100660.23
2019-05-11T00:38:05.574Z,100664.59
2019-05-11T00:40:37.090Z,100659.24
2019-05-11T00:43:08.770Z,100660.59
2019-05-11T00:45:40.222Z,100663.13
2019-05-11T00:48:11.635Z,100664.18
2019-05-11T00:50:43.073Z,100663.55
2019-05-11T00:53:14.574Z,100656.38
2019-05-11T00:55:45.950Z,100661.87
2019-05-11T00:58:17.483Z,100665.25
2019-05-11T01:00:48.946Z,100667.44
2019-05-11T01:03:20.500Z,100666.77
2019-05-11T01:05:51.991Z,100669.94
2019-05-11T01:08:23.655Z,100666.31
2019-05-11T01:10:55.505Z,100671.17
2019-05-11T01:13:27.070Z,100662.62
2019-05-11T01:15:58.483Z,100662.97
2019-05-11T01:18:30.030Z,100664.98
2019-05-11T01:21:02.523Z,100661.59
2019-05-11T01:23:35.083Z,100668.28
2019-05-11T01:26:08.363Z,100667.93
2019-05-11T01:28:40.993Z,100673.00
2019-05-11T01:31:12.829Z,100673.64
2019-05-11T01:33:44.471Z,100673.99
2019-05-11T01:36:16.287Z,100673.53
2019-05-11T01:38:48.039Z,100676.04
2019-05-11T01:41:19.505Z,100675.72
2019-05-11T01:43:51.315Z,100667.52
2019-05-11T01:46:23.037Z,100677.37
2019-05-11T01:48:54.484Z,100683.61
2019-05-11T01:51:26.176Z,100677.06
2019-05-11T01:53:58.047Z,100681.25
2019-05-11T01:56:29.486Z,100683.72
2019-05-11T01:59:00.796Z,100679.70
2019-05-11T02:01:34.453Z,100683.89
2019-05-11T02:04:06.136Z,100686.84
2019-05-11T02:06:37.766Z,100690.02
2019-05-11T02:09:12.017Z,100692.69
2019-05-11T02:11:43.828Z,100687.87
2019-05-11T02:14:15.752Z,100690.32
2019-05-11T02:16:47.245Z,100688.05
2019-05-11T02:19:18.856Z,100682.66
2019-05-11T02:21:52.702Z,100685.47
2019-05-11T02:24:24.468Z,100690.42
2019-05-11T02:27:00.095Z,100683.78
2019-05-11T02:29:31.613Z,100682.39
2019-05-11T02:32:03.062Z,100687.56
2019-05-11T02:34:34.779Z,100695.45
2019-05-11T02:37:06.421Z,100694.25
2019-05-11T02:39:37.946Z,100688.45
2019-05-11T02:42:09.475Z,100689.13
2019-05-11T02:44:40.892Z,100693.81
2019-05-11T02:47:12.454Z,100701.53
2019-05-11T02:49:44.209Z,100699.11
2019-05-11T02:52:17.091Z,100693.27
2019-05-11T02:54:50.489Z,100691.98
2019-05-11T02:57:21.944Z,100696.08
2019-05-11T02:59:54.637Z,100695.45
2019-05-11T03:02:26.002Z,100699.19
2019-05-11T03:04:57.675Z,100707.47
2019-05-11T03:07:29.050Z,100710.16
2019-05-11T03:10:00.951Z,100708.39
2019-05-11T03:12:32.643Z,100709.27
2019-05-11T03:15:06.328Z,100709.47
2019-05-11T03:17:37.612Z,100721.95
2019-05-11T03:20:09.167Z,100721.95
2019-05-11T03:22:41.024Z,100710.78
2019-05-11T03:25:12.521Z,100713.97
2019-05-11T03:27:45.453Z,100716.00
2019-05-11T03:30:17.184Z,100716.02
2019-05-11T03:32:48.862Z,100726.47
2019-05-11T03:35:20.430Z,100728.99
2019-05-11T03:37:52.140Z,100719.97
2019-05-11T03:40:23.753Z,100735.92
2019-05-11T03:42:56.031Z,100739.25
2019-05-11T03:45:27.981Z,100743.15
2019-05-11T03:47:59.533Z,100740.98
2019-05-11T03:50:31.343Z,100731.41
2019-05-11T03:53:02.735Z,100736.45
2019-05-11T03:55:35.088Z,100742.33
2019-05-11T03:58:06.751Z,100740.31
2019-05-11T04:00:38.416Z,100740.31
2019-05-11T04:03:10.094Z,100736.30
2019-05-11T04:05:43.746Z,100734.41
2019-05-11T04:08:15.236Z,100737.61
2019-05-11T04:10:47.550Z,100747.66
2019-05-11T04:13:19.123Z,100741.44
2019-05-11T04:15:51.014Z,100742.55
2019-05-11T04:18:22.639Z,100743.55
2019-05-11T04:20:54.196Z,100744.20
2019-05-11T04:23:25.783Z,100752.37
2019-05-11T04:25:57.425Z,100759.89
2019-05-11T04:28:30.736Z,100755.73
2019-05-11T04:31:02.230Z,100759.42
2019-05-11T04:33:35.485Z,100763.38
2019-05-11T04:36:08.727Z,100759.71
2019-05-11T04:38:41.816Z,100761.20
2019-05-11T04:41:13.382Z,100743.42
2019-05-11T04:43:47.128Z,100758.34
2019-05-11T04:46:18.560Z,100765.41
2019-05-11T04:48:49.961Z,100763.73
2019-05-11T04:51:21.550Z,100763.23
2019-05-11T04:53:53.018Z,100764.84
2019-05-11T04:56:24.453Z,100767.64
2019-05-11T04:58:57.829Z,100766.53
2019-05-11T05:01:29.259Z,100770.48
2019-05-11T05:04:13.226Z,100772.06
2019-05-11T05:06:33.942Z,100768.80
2019-05-11T05:09:08.327Z,100776.88
2019-05-11T05:11:40.243Z,100777.83
2019-05-11T05:14:12.147Z,100787.41
2019-05-11T05:16:43.630Z,100789.20
2019-05-11T05:19:15.106Z,100795.35
2019-05-11T05:21:46.860Z,100799.64
2019-05-11T05:24:21.913Z,100789.86
2019-05-11T05:26:53.468Z,100801.81
2019-05-11T05:29:26.443Z,100794.27
2019-05-11T05:31:58.270Z,100798.58
2019-05-11T05:34:29.920Z,100804.61
2019-05-11T05:37:02.191Z,100813.45
2019-05-11T05:39:33.706Z,100813.14
2019-05-11T05:42:06.430Z,100815.58
2019-05-11T05:44:38.125Z,100818.72
2019-05-11T05:47:09.705Z,100816.74
2019-05-11T05:49:41.484Z,100821.47
2019-05-11T05:52:13.199Z,100820.02
2019-05-11T05:54:45.991Z,100792.55
2019-05-11T05:57:21.031Z,100823.99
2019-05-11T05:59:52.567Z,100825.66
2019-05-11T06:02:26.489Z,100827.46
2019-05-11T06:04:58.893Z,100825.72
2019-05-11T06:07:31.631Z,100825.20
2019-05-11T06:10:04.428Z,100830.91
2019-05-11T06:12:36.042Z,100824.56
2019-05-11T06:15:08.558Z,100828.52
2019-05-11T06:17:40.416Z,100840.92
2019-05-11T06:20:13.899Z,100832.80
2019-05-11T06:22:45.431Z,100840.25
2019-05-11T06:25:17.066Z,100837.29
2019-05-11T06:27:48.613Z,100830.86
2019-05-11T06:30:23.159Z,100843.30
2019-05-11T06:32:57.708Z,100843.05
2019-05-11T06:35:33.378Z,100846.14
2019-05-11T06:38:05.164Z,100845.70
2019-05-11T06:40:37.578Z,100847.73
2019-05-11T06:43:09.961Z,100846.97
2019-05-11T06:45:42.541Z,100852.12
2019-05-11T06:48:14.540Z,100846.66
2019-05-11T06:50:46.424Z,100847.27
2019-05-11T06:53:18.463Z,100848.11
2019-05-11T06:55:49.981Z,100844.27
2019-05-11T06:58:21.600Z,100847.44
2019-05-11T07:00:54.238Z,100850.95
2019-05-11T07:03:26.769Z,100856.57
2019-05-11T07:05:58.145Z,100853.07
2019-05-11T07:08:31.493Z,100851.60
2019-05-11T07:11:02.596Z,100855.98
2019-05-11T07:13:39.818Z,100854.83
2019-05-11T07:16:12.219Z,100862.62
2019-05-11T07:18:43.789Z,100862.78
2019-05-11T07:21:16.344Z,100861.40
2019-05-11T07:23:47.774Z,100864.31
2019-05-11T07:26:19.254Z,100861.26
2019-05-11T07:28:50.569Z,100852.06
2019-05-11T07:31:23.634Z,100852.14
2019-05-11T07:33:58.739Z,100854.61
2019-05-11T07:36:32.570Z,100856.91
2019-05-11T07:39:08.486Z,100849.30
2019-05-11T07:41:41.401Z,100855.89
2019-05-11T07:44:12.970Z,100858.75
2019-05-11T07:46:44.590Z,100832.33
2019-05-11T07:49:17.933Z,100871.02
2019-05-11T07:51:49.317Z,100868.53
2019-05-11T07:54:21.987Z,100876.98
2019-05-11T07:56:53.507Z,100869.98
2019-05-11T07:59:24.996Z,100877.48
2019-05-11T08:01:58.332Z,100875.13
2019-05-11T08:04:32.102Z,100871.01
2019-05-11T08:07:03.674Z,100872.55
2019-05-11T08:09:35.004Z,100878.92
2019-05-11T08:12:08.751Z,100873.44
2019-05-11T08:14:56.817Z,100875.96
2019-05-11T08:17:14.718Z,100886.47
2019-05-11T08:19:47.619Z,100878.85
2019-05-11T08:22:22.665Z,100881.31
2019-05-11T08:24:52.637Z,100878.19
2019-05-11T08:27:28.549Z,100876.52
2019-05-11T08:30:08.368Z,100879.49
2019-05-11T08:32:41.924Z,100873.88
2019-05-11T08:35:13.825Z,100873.81
2019-05-11T08:37:47.720Z,100866.60
2019-05-11T08:40:20.891Z,100863.56
2019-05-11T08:42:53.936Z,100869.23
2019-05-11T08:45:29.775Z,100871.83
2019-05-11T08:48:02.916Z,100860.64
2019-05-11T08:50:38.400Z,100873.72
2019-05-11T08:53:17.705Z,100869.18
2019-05-11T08:55:49.199Z,100885.95
2019-05-11T08:58:23.662Z,100873.66
2019-05-11T09:00:58.205Z,100870.19
2019-05-11T09:03:31.985Z,100888.47
2019-05-11T09:06:03.897Z,100877.59
2019-05-11T09:08:38.835Z,100877.78
2019-05-11T09:11:14.098Z,100880.82
2019-05-11T09:13:48.846Z,100880.59
2019-05-11T09:16:21.315Z,100878.09
2019-05-11T09:18:52.626Z,100884.52
2019-05-11T09:21:23.989Z,100893.48
2019-05-11T09:23:57.859Z,100890.94
2019-05-11T09:26:29.591Z,100898.58
2019-05-11T09:29:11.354Z,100889.41
2019-05-11T09:31:44.117Z,100893.80
2019-05-11T09:34:18.085Z,100901.69
2019-05-11T09:36:49.699Z,100910.08
2019-05-11T09:39:21.120Z,100905.68
2019-05-11T09:41:54.770Z,100902.30
2019-05-11T09:44:29.578Z,100902.02
2019-05-11T09:47:02.818Z,100909.11
2019-05-11T09:49:46.399Z,100912.69
2019-05-11T09:52:10.719Z,100914.08
2019-05-11T09:54:42.245Z,100919.44
2019-05-11T09:57:14.184Z,100916.28
2019-05-11T09:59:50.167Z,100925.31
2019-05-11T10:02:28.674Z,100920.23
2019-05-11T10:05:00.653Z,100925.65
2019-05-11T10:07:35.156Z,100926.41
2019-05-11T10:10:09.164Z,100929.16
2019-05-11T10:12:44.690Z,100925.69
2019-05-11T10:15:18.600Z,100927.22
2019-05-11T10:17:49.728Z,100926.25
2019-05-11T10:20:22.442Z,100923.73
2019-05-11T10:22:57.962Z,100917.54
2019-05-11T10:25:29.736Z,100917.80
2019-05-11T10:28:01.395Z,100911.55
2019-05-11T10:30:32.812Z,100918.03
2019-05-11T10:33:04.615Z,100912.75
2019-05-11T10:35:38.577Z,100908.95
2019-05-11T10:38:11.022Z,100918.43
2019-05-11T10:40:48.047Z,100918.37
2019-05-11T10:43:30.443Z,100919.84
2019-05-11T10:46:16.088Z,100930.94
2019-05-11T10:48:36.016Z,100928.84
2019-05-11T10:51:08.250Z,100931.30
2019-05-11T10:53:41.105Z,100930.46
2019-05-11T10:56:17.879Z,100923.91
2019-05-11T10:59:01.627Z,100927.52
2019-05-11T11:01:38.030Z,100930.09
2019-05-11T11:04:10.709Z,100923.81
2019-05-11T11:06:43.681Z,100927.83
2019-05-11T11:09:19.120Z,100927.05
2019-05-11T11:11:52.531Z,100931.99
2019-05-11T11:14:28.794Z,100929.64
2019-05-11T11:17:04.963Z,100925.80
2019-05-11T11:19:43.004Z,100935.20
2019-05-11T11:22:33.268Z,100939.72
2019-05-11T11:24:49.871Z,100931.47
2019-05-11T11:27:22.911Z,100927.34
2019-05-11T11:29:58.116Z,100930.66
2019-05-11T11:32:29.088Z,100935.64
2019-05-11T11:35:02.901Z,100939.17
2019-05-11T11:37:38.476Z,100941.33
2019-05-11T11:40:09.945Z,100938.74
2019-05-11T11:42:43.603Z,100943.42
2019-05-11T11:45:18.299Z,100950.80
2019-05-11T11:47:50.747Z,100947.19
2019-05-11T11:50:23.049Z,100944.88
2019-05-11T11:52:54.712Z,100946.73
2019-05-11T11:55:26.248Z,100948.52
2019-05-11T11:57:59.111Z,100950.83
2019-05-11T12:00:30.584Z,100948.72
2019-05-11T12:03:02.071Z,100951.38
2019-05-11T12:05:33.396Z,100955.47
2019-05-11T12:08:04.749Z,100953.36
2019-05-11T12:10:37.975Z,100957.47
2019-05-11T12:13:10.520Z,100956.97
2019-05-11T12:15:44.187Z,100969.23
2019-05-11T12:18:15.967Z,100965.19
2019-05-11T12:20:48.136Z,100962.19
2019-05-11T12:23:19.775Z,100970.55
2019-05-11T12:25:51.977Z,100969.39
2019-05-11T12:28:25.107Z,100974.47
2019-05-11T12:30:58.556Z,100968.63
2019-05-11T12:33:34.877Z,100972.20
2019-05-11T12:36:07.915Z,100973.76
2019-05-11T12:38:41.657Z,100983.53
2019-05-11T12:41:13.701Z,100983.77
2019-05-11T12:43:45.099Z,100980.47
2019-05-11T12:46:18.849Z,100978.04
2019-05-11T12:48:50.301Z,100976.11
2019-05-11T12:51:22.409Z,100978.04
2019-05-11T12:54:04.308Z,100979.34
2019-05-11T12:56:38.249Z,100982.33
2019-05-11T12:59:14.460Z,100982.63
2019-05-11T13:01:48.530Z,100990.19
2019-05-11T13:04:20.896Z,100995.09
2019-05-11T13:06:53.088Z,100993.23
2019-05-11T13:09:30.072Z,100999.27
2019-05-11T13:12:02.389Z,101000.80
2019-05-11T13:14:38.176Z,100997.48
2019-05-11T13:17:09.912Z,101002.17
2019-05-11T13:19:48.040Z,101006.22
2019-05-11T13:22:19.571Z,100999.34
2019-05-11T13:24:52.210Z,101007.21
2019-05-11T13:27:25.292Z,100999.09
2019-05-11T13:29:59.201Z,101002.77
2019-05-11T13:32:31.049Z,101003.14
2019-05-11T13:35:09.179Z,101001.61
2019-05-11T13:37:51.799Z,101002.99
2019-05-11T13:40:27.720Z,101006.50
2019-05-11T13:43:00.093Z,101001.99
2019-05-11T13:45:32.789Z,101002.78
2019-05-11T13:48:08.455Z,101006.70
2019-05-11T13:50:40.465Z,101012.91
2019-05-11T13:53:14.535Z,101011.37
2019-05-11T13:55:48.263Z,101010.52
2019-05-11T13:58:20.785Z,101008.39
2019-05-11T14:00:52.227Z,101005.58
2019-05-11T14:03:23.768Z,101008.00
2019-05-11T14:05:58.166Z,101011.91
2019-05-11T14:08:29.899Z,101004.73
2019-05-11T14:11:03.235Z,101012.52
2019-05-11T14:13:38.691Z,101012.11
2019-05-11T14:16:14.895Z,101011.48
2019-05-11T14:18:48.890Z,101010.91
2019-05-11T14:21:20.791Z,101008.34
2019-05-11T14:23:54.696Z,101001.31
2019-05-11T14:26:28.017Z,101014.72
2019-05-11T14:28:59.797Z,101013.52
2019-05-11T14:31:31.997Z,101015.48
2019-05-11T14:34:03.716Z,101023.95
2019-05-11T14:36:35.163Z,101021.86
2019-05-11T14:39:08.394Z,101022.88
2019-05-11T14:41:41.924Z,101026.17
2019-05-11T14:44:13.447Z,101026.08
2019-05-11T14:46:44.960Z,101030.80
2019-05-11T14:49:18.437Z,101027.75
2019-05-11T14:51:52.279Z,101031.22
2019-05-11T14:54:23.792Z,101031.12
2019-05-11T14:56:58.416Z,101026.64
2019-05-11T14:59:31.389Z,101029.19
2019-05-11T15:02:05.146Z,101029.05
2019-05-11T15:04:38.841Z,101031.68
2019-05-11T15:07:10.610Z,101029.02
2019-05-11T15:09:42.163Z,101028.98
2019-05-11T15:12:13.699Z,101035.24
2019-05-11T15:14:48.592Z,101041.67
2019-05-11T15:17:20.083Z,101032.20
2019-05-11T15:19:51.549Z,101033.03
2019-05-11T15:22:23.043Z,101031.25
2019-05-11T15:24:54.702Z,101030.33
2019-05-11T15:27:26.059Z,101027.26
2019-05-11T15:29:58.787Z,101031.89
2019-05-11T15:32:30.391Z,101030.09
2019-05-11T15:35:01.847Z,101034.23
2019-05-11T15:37:33.307Z,101024.13
2019-05-11T15:40:18.613Z,101030.63
2019-05-11T15:42:53.133Z,101032.77
2019-05-11T15:45:23.762Z,101042.06
2019-05-11T15:47:55.190Z,101036.70
2019-05-11T15:50:28.864Z,101033.89
2019-05-11T15:53:00.043Z,101044.73
2019-05-11T15:55:31.657Z,101041.06
2019-05-11T15:58:04.452Z,101048.15
2019-05-11T16:00:39.705Z,101050.25
2019-05-11T16:03:09.339Z,101055.64
2019-05-11T16:05:40.852Z,101053.28
2019-05-11T16:08:13.381Z,101051.59
2019-05-11T16:10:44.997Z,101057.98
2019-05-11T16:13:18.115Z,101060.08
2019-05-11T16:15:51.275Z,101053.88
2019-05-11T16:18:22.852Z,101054.23
2019-05-11T16:20:54.369Z,101068.05
2019-05-11T16:23:28.232Z,101060.12
2019-05-11T16:25:58.974Z,101064.50
2019-05-11T16:28:30.997Z,101062.22
2019-05-11T16:31:02.584Z,101065.06
2019-05-11T16:33:34.049Z,101067.22
2019-05-11T16:36:05.446Z,101067.56
2019-05-11T16:38:38.010Z,101071.63
2019-05-11T16:41:09.802Z,101073.80
2019-05-11T16:43:43.112Z,101077.02
2019-05-11T16:46:17.760Z,101083.73
2019-05-11T16:48:48.953Z,101075.34
2019-05-11T16:51:20.346Z,101083.24
2019-05-11T16:53:51.828Z,101085.94
2019-05-11T16:56:23.485Z,101091.84
2019-05-11T16:58:55.302Z,101092.32
2019-05-11T17:01:26.893Z,101093.51
2019-05-11T17:04:00.807Z,101093.84
2019-05-11T17:06:32.577Z,101100.20
2019-05-11T17:09:08.598Z,101095.83
2019-05-11T17:11:40.550Z,101096.83
2019-05-11T17:14:12.552Z,101091.59
2019-05-11T17:16:49.040Z,101095.13
2019-05-11T17:19:20.733Z,101093.63
2019-05-11T17:21:52.499Z,101096.29
2019-05-11T17:24:24.398Z,101101.83
2019-05-11T17:26:58.323Z,101103.33
2019-05-11T17:29:29.925Z,101099.10
2019-05-11T17:32:01.695Z,101115.08
2019-05-11T17:34:33.269Z,101114.23
2019-05-11T17:37:04.898Z,101118.59
2019-05-11T17:39:38.559Z,101115.55
2019-05-11T17:42:10.353Z,101124.94
2019-05-11T17:44:43.690Z,101123.24
2019-05-11T17:47:17.409Z,101131.16
2019-05-11T17:49:57.361Z,101129.47
2019-05-11T17:52:22.109Z,101133.70
2019-05-11T17:54:55.157Z,101133.36
2019-05-11T17:57:27.833Z,101133.36
2019-05-11T18:00:02.150Z,101137.36
2019-05-11T18:02:32.717Z,101141.69
2019-05-11T18:05:05.316Z,101152.44
2019-05-11T18:07:38.515Z,101155.09
2019-05-11T18:10:10.374Z,101152.91
2019-05-11T18:12:42.323Z,101151.03
2019-05-11T18:15:14.051Z,101155.67
2019-05-11T18:17:48.192Z,101165.25
2019-05-11T18:20:21.968Z,101165.00
2019-05-11T18:22:52.438Z,101168.31
2019-05-11T18:25:23.947Z,101164.20
2019-05-11T18:27:55.402Z,101168.63
2019-05-11T18:30:29.120Z,101167.52
2019-05-11T18:33:00.065Z,101173.20
2019-05-11T18:35:31.979Z,101176.55
2019-05-11T18:38:04.484Z,101180.94
2019-05-11T18:40:38.191Z,101182.69
2019-05-11T18:43:10.215Z,101183.31
2019-05-11T18:45:43.340Z,101185.11
2019-05-11T18:48:18.350Z,101178.66
2019-05-11T18:50:49.311Z,101176.16
2019-05-11T18:53:22.117Z,101179.45
2019-05-11T18:55:55.492Z,101186.43
2019-05-11T18:58:27.851Z,101190.58
2019-05-11T19:00:59.931Z,101188.33
2019-05-11T19:03:32.179Z,101189.36
2019-05-11T19:06:04.125Z,101193.34
2019-05-11T19:08:38.287Z,101189.44
2019-05-11T19:11:11.135Z,101187.05
2019-05-11T19:13:42.777Z,101187.55
2019-05-11T19:16:14.533Z,101175.73
2019-05-11T19:18:47.949Z,101192.90
2019-05-11T19:21:19.190Z,101189.96
2019-05-11T19:23:52.004Z,101181.59
2019-05-11T19:26:23.742Z,101180.30
2019-05-11T19:28:57.826Z,101187.45
2019-05-11T19:31:28.838Z,101189.77
2019-05-11T19:34:00.506Z,101193.78
2019-05-11T19:36:32.101Z,101188.33
2019-05-11T19:39:05.276Z,101195.95
2019-05-11T19:41:36.982Z,101206.17
2019-05-11T19:44:08.815Z,101208.09
2019-05-11T19:46:42.314Z,101209.33
2019-05-11T19:49:16.107Z,101208.59
2019-05-11T19:51:48.799Z,101208.64
2019-05-11T19:54:20.392Z,101210.28
2019-05-11T19:56:52.536Z,101210.09
2019-05-11T19:59:25.025Z,101212.36
2019-05-11T20:01:59.801Z,101216.14
2019-05-11T20:04:30.728Z,101216.93
2019-05-11T20:07:02.724Z,101219.31
2019-05-11T20:09:34.506Z,101226.75
2019-05-11T20:12:06.341Z,101222.95
2019-05-11T20:14:38.125Z,101223.83
2019-05-11T20:17:09.687Z,101221.20
2019-05-11T20:19:41.566Z,101219.88
2019-05-11T20:22:16.682Z,101220.59
2019-05-11T20:24:49.868Z,101213.78
2019-05-11T20:27:21.403Z,101211.02
2019-05-11T20:29:55.006Z,101211.56
2019-05-11T20:32:28.418Z,101222.61
2019-05-11T20:34:59.973Z,101221.13
2019-05-11T20:37:32.342Z,101219.42
2019-05-11T20:40:05.961Z,101224.92
2019-05-11T20:42:38.244Z,101228.04
2019-05-11T20:45:12.036Z,101226.04
2019-05-11T20:47:48.449Z,101234.39
2019-05-11T20:50:21.900Z,101229.16
2019-05-11T20:52:54.757Z,101235.73
2019-05-11T20:55:28.401Z,101229.80
2019-05-11T20:57:59.758Z,101229.67
2019-05-11T21:00:31.278Z,101225.09
2019-05-11T21:03:03.008Z,101226.45
2019-05-11T21:05:34.802Z,101228.02
2019-05-11T21:08:08.657Z,101224.62
2019-05-11T21:10:42.057Z,101228.81
2019-05-11T21:13:14.872Z,101215.28
2019-05-11T21:15:47.852Z,101232.84
2019-05-11T21:18:20.538Z,101232.66
2019-05-11T21:20:52.514Z,101243.87
2019-05-11T21:23:24.746Z,101242.84
2019-05-11T21:25:56.569Z,101247.42
2019-05-11T21:28:30.675Z,101239.05
2019-05-11T21:31:07.781Z,101245.22
2019-05-11T21:33:38.952Z,101243.38
2019-05-11T21:36:11.687Z,101243.99
2019-05-11T21:38:44.473Z,101241.26
2019-05-11T21:41:17.435Z,101242.24
2019-05-11T21:43:50.140Z,101240.16
2019-05-11T21:46:22.579Z,101237.92
2019-05-11T21:48:58.347Z,101242.88
2019-05-11T21:51:30.607Z,101247.37
2019-05-11T21:54:05.023Z,101244.60
2019-05-11T21:56:40.793Z,101255.13
2019-05-11T21:59:11.016Z,101249.84
2019-05-11T22:01:43.149Z,101246.78
2019-05-11T22:04:15.275Z,101248.06
2019-05-11T22:06:48.371Z,101244.99
2019-05-11T22:09:20.760Z,101250.95
2019-05-11T22:11:55.823Z,101247.67
2019-05-11T22:14:29.892Z,101248.92
2019-05-11T22:17:02.593Z,101257.06
2019-05-11T22:19:34.233Z,101257.84
2019-05-11T22:22:20.739Z,101255.95
2019-05-11T22:24:39.102Z,101262.05
2019-05-11T22:27:10.530Z,101262.58
2019-05-11T22:29:42.174Z,101254.52
2019-05-11T22:32:13.997Z,101252.72
2019-05-11T22:34:47.856Z,101252.91
2019-05-11T22:37:19.899Z,101257.64
2019-05-11T22:39:51.564Z,101254.83
2019-05-11T22:42:23.054Z,101258.41
2019-05-11T22:44:54.502Z,101260.30
2019-05-11T22:47:28.204Z,101244.05
2019-05-11T22:50:07.804Z,101255.24
2019-05-11T22:52:40.274Z,101252.77
2019-05-11T22:55:12.426Z,101247.70
2019-05-11T22:57:44.113Z,101247.57
2019-05-11T23:00:18.329Z,101248.84
2019-05-11T23:02:49.186Z,101252.67
2019-05-11T23:05:20.830Z,101260.25
2019-05-11T23:07:52.560Z,101244.48
2019-05-11T23:10:24.180Z,101247.64
2019-05-11T23:12:55.770Z,101251.30
2019-05-11T23:15:27.376Z,101250.81
2019-05-11T23:17:59.967Z,101256.81
2019-05-11T23:20:31.689Z,101250.52
2019-05-11T23:23:03.345Z,101248.08
2019-05-11T23:25:34.954Z,101248.08
2019-05-11T23:28:06.559Z,101245.81
2019-05-11T23:30:38.957Z,101248.36
2019-05-11T23:33:11.090Z,101244.39
2019-05-11T23:35:42.671Z,101254.25
2019-05-11T23:38:14.418Z,101247.56
2019-05-11T23:40:48.098Z,101255.88
2019-05-11T23:43:19.408Z,101262.20
2019-05-11T23:45:51.149Z,101264.86
2019-05-11T23:48:22.756Z,101260.77
2019-05-11T23:50:58.009Z,101262.99
2019-05-11T23:53:29.175Z,101262.34
2019-05-11T23:56:00.828Z,101255.61
2019-05-11T23:58:32.281Z,101259.03
